Time;durP1;ratioP1;P1;durP2;ratioP2;P2;SDS_P1;SDS_P2;PMS_P1;PMS_P2;Temp;Humidity;BMP_temperature;BMP_pressure;BME280_temperature;BME280_humidity;BME280_pressure;Samples;Min_cycle;Max_cycle;Signal;HPM_P1;HPM_P2
2022/06/28 00:01:14;;;;;;;1.40;1.30;;;22.60;48.70;;;;;;4902973;29;20280;-58
2022/06/28 00:03:41;;;;;;;1.23;1.13;;;22.60;48.70;;;;;;4906132;29;20223;-57
2022/06/28 00:06:06;;;;;;;1.20;1.10;;;22.60;48.60;;;;;;4902002;29;20194;-60
2022/06/28 00:08:32;;;;;;;1.50;1.40;;;22.60;48.60;;;;;;4902969;29;20446;-57
2022/06/28 00:10:58;;;;;;;1.30;1.20;;;22.60;48.60;;;;;;4903531;29;20246;-57
2022/06/28 00:13:24;;;;;;;1.30;1.20;;;22.60;48.60;;;;;;4898814;29;20219;-57
2022/06/28 00:16:04;;;;;;;1.43;1.33;;;22.60;48.50;;;;;;4902435;29;20490;-57
2022/06/28 00:18:30;;;;;;;1.30;1.20;;;22.60;48.50;;;;;;4902537;29;20279;-58
2022/06/28 00:20:56;;;;;;;1.60;1.50;;;22.60;48.50;;;;;;4905028;29;20485;-57
2022/06/28 00:23:21;;;;;;;1.60;1.40;;;22.60;48.50;;;;;;4902770;29;20869;-57
2022/06/28 00:25:47;;;;;;;1.30;1.20;;;22.60;48.50;;;;;;4902306;29;20191;-58
2022/06/28 00:28:13;;;;;;;1.57;1.43;;;22.60;48.50;;;;;;4904173;29;20226;-59
2022/06/28 00:30:38;;;;;;;1.20;1.10;;;22.60;48.40;;;;;;4907250;29;20215;-58
2022/06/28 00:33:04;;;;;;;1.30;1.20;;;22.60;48.40;;;;;;4908518;29;20192;-57
2022/06/28 00:35:30;;;;;;;1.27;1.17;;;22.60;48.40;;;;;;4910092;29;20823;-61
2022/06/28 00:37:55;;;;;;;1.50;1.40;;;22.60;48.30;;;;;;4908890;29;20207;-57
2022/06/28 00:40:22;;;;;;;1.53;1.43;;;22.60;48.30;;;;;;4910373;29;20200;-57
2022/06/28 00:42:48;;;;;;;1.30;1.20;;;22.60;48.30;;;;;;4906022;29;20285;-59
2022/06/28 00:45:14;;;;;;;1.33;1.23;;;22.60;48.30;;;;;;4906956;29;20612;-58
2022/06/28 00:47:40;;;;;;;1.30;1.20;;;22.50;48.10;;;;;;4907901;29;20210;-58
2022/06/28 00:50:06;;;;;;;1.40;1.30;;;22.60;48.20;;;;;;4907081;29;20909;-57
2022/06/28 00:52:32;;;;;;;1.20;1.10;;;22.50;48.10;;;;;;4907214;29;20283;-58
2022/06/28 00:54:57;;;;;;;1.20;1.10;;;22.60;48.20;;;;;;4905679;29;20568;-57
2022/06/28 00:57:23;;;;;;;1.30;1.20;;;22.50;48.10;;;;;;4902452;29;20196;-57
2022/06/28 00:59:49;;;;;;;1.00;1.00;;;22.50;48.10;;;;;;4906422;29;20192;-58
2022/06/28 01:02:14;;;;;;;1.30;1.20;;;22.60;48.20;;;;;;4906114;29;20248;-58
2022/06/28 01:04:40;;;;;;;1.33;1.23;;;22.60;48.10;;;;;;4909103;29;20187;-57
2022/06/28 01:07:06;;;;;;;1.20;1.10;;;22.60;48.10;;;;;;4907114;29;20199;-57
2022/06/28 01:09:32;;;;;;;1.40;1.30;;;22.60;48.00;;;;;;4904108;29;20442;-58
2022/06/28 01:11:58;;;;;;;1.30;1.20;;;22.60;48.00;;;;;;4908424;29;20191;-59
2022/06/28 01:14:24;;;;;;;1.30;1.20;;;22.60;48.00;;;;;;4903279;29;20781;-57
2022/06/28 01:16:50;;;;;;;1.07;1.03;;;22.60;48.00;;;;;;4910723;29;20235;-57
2022/06/28 01:19:16;;;;;;;1.23;1.13;;;22.50;47.90;;;;;;4904629;29;20447;-58
2022/06/28 01:21:44;;;;;;;1.40;1.30;;;22.60;48.00;;;;;;4906922;29;20734;-59
2022/06/28 01:24:09;;;;;;;1.40;1.30;;;22.50;48.60;;;;;;4902707;29;20506;-58
2022/06/28 01:26:35;;;;;;;1.30;1.20;;;22.50;47.80;;;;;;4906449;29;20445;-57
2022/06/28 01:29:01;;;;;;;1.30;1.20;;;22.50;47.70;;;;;;4904999;29;20184;-58
2022/06/28 01:31:27;;;;;;;1.40;1.30;;;22.50;47.70;;;;;;4909585;29;20574;-60
2022/06/28 01:33:53;;;;;;;1.70;1.30;;;22.50;47.70;;;;;;4890632;29;20451;-57
2022/06/28 01:36:20;;;;;;;1.40;1.30;;;22.50;47.70;;;;;;4908432;29;20442;-57
2022/06/28 01:38:47;;;;;;;1.20;1.10;;;22.50;47.60;;;;;;4909779;29;20434;-60
2022/06/28 01:43:58;;;;;;;1.30;1.20;;;22.50;47.60;;;;;;4911426;29;20812;-57
2022/06/28 01:46:25;;;;;;;1.23;1.13;;;22.50;47.60;;;;;;4907043;29;20525;-57
2022/06/28 01:48:50;;;;;;;1.40;1.30;;;22.50;47.50;;;;;;4906343;29;20442;-59
2022/06/28 01:51:16;;;;;;;1.47;1.37;;;22.50;47.50;;;;;;4904334;29;20803;-57
2022/06/28 01:53:42;;;;;;;1.20;1.10;;;22.50;47.50;;;;;;4909739;29;20191;-57
2022/06/28 01:56:07;;;;;;;1.40;1.30;;;22.50;47.50;;;;;;4906002;29;20215;-57
2022/06/28 01:58:33;;;;;;;1.50;1.40;;;22.50;47.50;;;;;;4906526;29;20196;-57
2022/06/28 02:00:58;;;;;;;1.30;1.20;;;22.50;47.50;;;;;;4904264;29;20187;-58
2022/06/28 02:03:24;;;;;;;1.20;1.10;;;22.50;47.40;;;;;;4903279;29;20274;-57
2022/06/28 02:05:50;;;;;;;1.20;1.10;;;22.50;47.40;;;;;;4906172;29;20953;-57
2022/06/28 02:08:15;;;;;;;1.30;1.20;;;22.50;47.40;;;;;;4905614;29;20188;-58
2022/06/28 02:10:41;;;;;;;1.40;1.23;;;22.50;47.30;;;;;;4907200;29;20184;-59
2022/06/28 02:13:06;;;;;;;1.40;1.30;;;22.50;47.30;;;;;;4904000;29;20184;-57
2022/06/28 02:15:32;;;;;;;1.30;1.20;;;22.50;47.30;;;;;;4906419;29;20207;-57
2022/06/28 02:17:59;;;;;;;1.50;1.40;;;22.50;47.30;;;;;;4906568;29;20299;-57
2022/06/28 02:20:25;;;;;;;1.30;1.20;;;22.50;47.30;;;;;;4904830;29;20711;-58
2022/06/28 02:22:50;;;;;;;1.50;1.40;;;22.50;47.20;;;;;;4903004;29;20469;-57
2022/06/28 02:25:17;;;;;;;1.30;1.20;;;22.50;47.20;;;;;;4902764;29;20662;-59
2022/06/28 02:27:43;;;;;;;1.20;1.10;;;22.50;47.10;;;;;;4897401;29;20270;-57
2022/06/28 02:30:10;;;;;;;1.07;1.00;;;22.50;47.10;;;;;;4908310;29;20799;-57
2022/06/28 02:32:36;;;;;;;1.20;1.10;;;22.50;47.10;;;;;;4904248;29;20457;-58
2022/06/28 02:40:30;;;;;;;1.40;1.30;;;22.50;46.90;;;;;;4903240;29;20491;-57
2022/06/28 02:42:57;;;;;;;1.10;1.10;;;22.50;46.90;;;;;;4903942;29;20578;-59
2022/06/28 02:45:25;;;;;;;1.40;1.30;;;22.50;46.90;;;;;;4904061;29;22483;-57
2022/06/28 02:47:51;;;;;;;1.40;1.30;;;22.50;46.90;;;;;;4904824;29;20445;-61
2022/06/28 02:50:17;;;;;;;1.30;1.20;;;22.50;46.80;;;;;;4902984;29;20485;-57
2022/06/28 02:52:43;;;;;;;1.07;1.07;;;22.50;46.90;;;;;;4904598;29;20448;-57
2022/06/28 02:55:10;;;;;;;1.30;1.20;;;22.50;46.90;;;;;;4905156;29;20785;-59
2022/06/28 02:57:36;;;;;;;1.20;1.10;;;22.50;46.90;;;;;;4903486;29;20245;-57
2022/06/28 03:00:09;;;;;;;1.33;1.20;;;22.40;46.70;;;;;;4907325;29;20843;-58
2022/06/28 03:02:36;;;;;;;1.10;1.00;;;22.50;46.80;;;;;;4902967;29;20474;-57
2022/06/28 03:05:06;;;;;;;1.20;1.10;;;22.50;46.90;;;;;;4901821;29;20441;-59
2022/06/28 03:07:32;;;;;;;1.40;1.30;;;22.50;46.80;;;;;;4905191;29;20443;-57
2022/06/28 03:09:58;;;;;;;1.50;1.40;;;22.50;46.80;;;;;;4907084;29;20446;-57
2022/06/28 03:12:24;;;;;;;1.10;1.10;;;22.50;46.80;;;;;;4905894;29;20203;-57
2022/06/28 03:14:50;;;;;;;1.30;1.20;;;22.50;46.90;;;;;;4907150;29;20445;-56
2022/06/28 03:17:16;;;;;;;1.30;1.20;;;22.50;46.80;;;;;;4904848;29;20195;-57
2022/06/28 03:19:42;;;;;;;1.30;1.20;;;22.50;46.80;;;;;;4905444;29;20238;-57
2022/06/28 03:22:07;;;;;;;1.57;1.20;;;22.50;47.00;;;;;;4903205;29;20223;-58
2022/06/28 03:24:33;;;;;;;1.40;1.30;;;22.50;46.90;;;;;;4902889;29;20204;-57
2022/06/28 03:26:59;;;;;;;1.40;1.30;;;22.50;46.90;;;;;;4899776;29;20196;-57
2022/06/28 03:29:24;;;;;;;1.50;1.40;;;22.50;46.90;;;;;;4906792;29;20188;-58
2022/06/28 03:31:50;;;;;;;1.20;1.10;;;22.50;46.90;;;;;;4907568;29;20904;-57
2022/06/28 03:34:16;;;;;;;1.30;1.20;;;22.50;46.80;;;;;;4903327;29;20187;-59
2022/06/28 03:36:42;;;;;;;1.40;1.30;;;22.50;46.90;;;;;;4904429;29;20195;-58
2022/06/28 03:39:08;;;;;;;1.33;1.23;;;22.50;46.90;;;;;;4904132;29;20808;-58
2022/06/28 03:41:33;;;;;;;1.40;1.30;;;22.50;46.90;;;;;;4911538;29;20223;-57
2022/06/28 03:43:59;;;;;;;1.40;1.30;;;22.50;46.80;;;;;;4907218;29;20541;-56
2022/06/28 03:46:25;;;;;;;1.70;1.40;;;22.50;46.90;;;;;;4903555;29;20648;-57
2022/06/28 03:48:50;;;;;;;1.47;1.37;;;22.50;46.80;;;;;;4907165;29;20206;-57
2022/06/28 03:51:16;;;;;;;2.03;1.27;;;22.50;46.90;;;;;;4900192;29;20214;-58
2022/06/28 03:53:42;;;;;;;1.30;1.20;;;22.50;46.80;;;;;;4904614;29;20275;-58
2022/06/28 03:56:08;;;;;;;2.43;1.33;;;22.50;46.90;;;;;;4905988;29;20286;-57
2022/06/28 03:58:34;;;;;;;2.73;1.20;;;22.50;46.80;;;;;;4903294;29;20254;-57
2022/06/28 04:01:00;;;;;;;1.40;1.30;;;22.50;46.80;;;;;;4902181;29;20797;-57
2022/06/28 04:03:26;;;;;;;1.20;1.10;;;22.50;46.90;;;;;;4907967;29;20467;-58
2022/06/28 04:05:51;;;;;;;1.67;1.40;;;22.50;46.90;;;;;;4908724;29;20183;-57
2022/06/28 04:08:17;;;;;;;1.20;1.10;;;22.50;46.80;;;;;;4912041;29;20220;-58
2022/06/28 04:10:43;;;;;;;1.30;1.20;;;22.50;46.80;;;;;;4908088;29;20546;-57
2022/06/28 04:13:09;;;;;;;1.20;1.10;;;22.50;46.90;;;;;;4908749;29;20271;-58
2022/06/28 04:15:35;;;;;;;1.37;1.27;;;22.50;46.90;;;;;;4906353;29;20441;-59
2022/06/28 04:18:01;;;;;;;1.40;1.30;;;22.50;46.80;;;;;;4910186;29;20199;-59
2022/06/28 04:20:27;;;;;;;1.20;1.10;;;22.50;46.80;;;;;;4913454;29;20441;-59
2022/06/28 04:22:53;;;;;;;1.20;1.10;;;22.40;46.80;;;;;;4909721;29;20457;-57
2022/06/28 04:25:18;;;;;;;2.60;1.30;;;22.40;46.80;;;;;;4909656;29;20278;-57
2022/06/28 04:27:44;;;;;;;1.23;1.13;;;22.50;46.90;;;;;;4904999;29;20236;-57
2022/06/28 04:30:10;;;;;;;1.30;1.20;;;22.40;46.80;;;;;;4910704;29;20187;-57
2022/06/28 04:32:36;;;;;;;1.50;1.40;;;22.50;46.80;;;;;;4907409;29;20271;-57
2022/06/28 04:35:02;;;;;;;1.50;1.40;;;22.40;46.80;;;;;;4906976;29;20540;-59
2022/06/28 04:37:27;;;;;;;1.30;1.20;;;22.40;46.80;;;;;;4909274;29;20235;-58
2022/06/28 04:39:53;;;;;;;11.33;1.50;;;22.40;46.70;;;;;;4902887;29;20211;-59
2022/06/28 04:42:19;;;;;;;1.33;1.23;;;22.40;46.80;;;;;;4906319;29;20239;-60
2022/06/28 04:44:45;;;;;;;1.73;1.40;;;22.40;46.80;;;;;;4906081;29;20823;-58
2022/06/28 04:47:10;;;;;;;2.80;1.77;;;22.40;46.80;;;;;;4906701;29;20195;-58
2022/06/28 04:49:37;;;;;;;1.10;1.00;;;22.40;46.70;;;;;;4907979;29;20335;-58
2022/06/28 04:52:03;;;;;;;2.07;1.40;;;22.40;46.70;;;;;;4901450;29;20191;-61
2022/06/28 04:54:28;;;;;;;1.20;1.10;;;22.50;46.90;;;;;;4902844;29;20440;-58
2022/06/28 04:56:54;;;;;;;1.40;1.30;;;22.40;46.70;;;;;;4906417;29;20438;-58
2022/06/28 04:59:20;;;;;;;1.30;1.20;;;22.40;46.80;;;;;;4899556;29;20298;-57
2022/06/28 05:01:46;;;;;;;1.43;1.33;;;22.40;46.80;;;;;;4907073;29;20203;-59
2022/06/28 05:04:11;;;;;;;1.63;1.30;;;22.50;46.90;;;;;;4910744;29;20192;-59
2022/06/28 05:06:37;;;;;;;1.27;1.07;;;22.50;46.80;;;;;;4907961;29;20199;-59
2022/06/28 05:09:03;;;;;;;1.27;1.17;;;22.50;46.90;;;;;;4907074;29;20352;-57
2022/06/28 05:11:31;;;;;;;1.30;1.20;;;22.50;46.90;;;;;;4908379;29;20632;-57
2022/06/28 05:13:58;;;;;;;1.23;1.20;;;22.50;46.80;;;;;;4907139;29;20195;-57
2022/06/28 05:16:24;;;;;;;1.53;1.40;;;22.40;46.70;;;;;;4903776;29;22129;-58
2022/06/28 05:18:49;;;;;;;1.63;1.50;;;22.50;46.80;;;;;;4906707;29;20945;-57
2022/06/28 05:21:15;;;;;;;1.20;1.10;;;22.50;46.80;;;;;;4905493;29;20919;-59
2022/06/28 05:23:40;;;;;;;1.10;1.00;;;22.50;46.80;;;;;;4906969;29;20216;-59
2022/06/28 05:26:06;;;;;;;1.00;1.00;;;22.50;46.90;;;;;;4905398;29;20195;-59
2022/06/28 05:28:31;;;;;;;1.20;1.10;;;22.50;47.60;;;;;;4906289;29;20195;-57
2022/06/28 05:30:57;;;;;;;1.20;1.10;;;22.50;46.90;;;;;;4904855;29;21597;-57
2022/06/28 05:33:23;;;;;;;1.77;1.37;;;22.50;46.90;;;;;;4905487;29;20192;-56
2022/06/28 05:35:49;;;;;;;1.50;1.30;;;22.50;46.90;;;;;;4905488;29;20187;-57
2022/06/28 05:38:15;;;;;;;1.30;1.20;;;22.50;46.90;;;;;;4900593;29;20551;-60
2022/06/28 05:40:41;;;;;;;1.20;1.10;;;22.50;46.90;;;;;;4903195;29;20449;-59
2022/06/28 05:43:07;;;;;;;1.50;1.40;;;22.50;46.80;;;;;;4902911;29;20231;-57
2022/06/28 05:45:32;;;;;;;1.43;1.33;;;22.50;46.80;;;;;;4907155;29;20184;-60
2022/06/28 05:47:58;;;;;;;1.50;1.40;;;22.50;46.80;;;;;;4905335;29;20184;-57
2022/06/28 05:50:24;;;;;;;1.10;1.10;;;22.50;46.90;;;;;;4907328;29;20200;-57
2022/06/28 05:52:50;;;;;;;1.30;1.20;;;22.50;46.90;;;;;;4906313;29;20206;-58
2022/06/28 05:55:15;;;;;;;1.33;1.23;;;22.50;46.80;;;;;;4912140;29;20456;-59
2022/06/28 05:57:41;;;;;;;1.50;1.40;;;22.50;46.90;;;;;;4910396;29;20449;-58
2022/06/28 06:00:08;;;;;;;1.63;1.10;;;22.50;46.80;;;;;;4893447;29;20647;-57
2022/06/28 06:02:34;;;;;;;1.50;1.13;;;22.50;46.80;;;;;;4904079;29;20489;-57
2022/06/28 06:05:02;;;;;;;1.20;1.10;;;22.50;46.90;;;;;;4906544;29;20434;-58
2022/06/28 06:07:29;;;;;;;1.30;1.20;;;22.50;46.90;;;;;;4905252;29;20203;-60
2022/06/28 06:09:55;;;;;;;1.77;1.23;;;22.50;46.80;;;;;;4907653;29;20998;-56
2022/06/28 06:12:21;;;;;;;1.07;1.07;;;22.50;46.90;;;;;;4906645;29;20466;-58
2022/06/28 06:14:46;;;;;;;1.40;1.30;;;22.50;46.90;;;;;;4904539;29;20219;-57
2022/06/28 06:17:12;;;;;;;1.47;1.37;;;22.50;46.90;;;;;;4902783;29;20470;-59
2022/06/28 06:19:37;;;;;;;1.60;1.50;;;22.50;46.80;;;;;;4907600;29;20191;-57
2022/06/28 06:22:03;;;;;;;1.50;1.40;;;22.50;46.90;;;;;;4907825;29;20299;-56
2022/06/28 06:24:29;;;;;;;1.30;1.20;;;22.40;46.70;;;;;;4903213;29;20250;-56
2022/06/28 06:26:54;;;;;;;1.37;1.27;;;22.40;46.80;;;;;;4905067;29;20726;-56
2022/06/28 06:29:20;;;;;;;1.50;1.40;;;22.50;46.90;;;;;;4909805;29;20191;-56
2022/06/28 06:31:45;;;;;;;1.30;1.20;;;22.40;46.70;;;;;;4907555;29;20206;-58
2022/06/28 06:34:13;;;;;;;1.47;1.37;;;22.50;46.90;;;;;;4903827;29;20189;-60
2022/06/28 06:36:39;;;;;;;1.40;1.30;;;22.40;47.60;;;;;;4904954;29;20183;-57
2022/06/28 06:39:04;;;;;;;1.37;1.27;;;22.40;46.70;;;;;;4907634;29;20445;-57
2022/06/28 06:41:30;;;;;;;2.17;1.50;;;22.40;46.70;;;;;;4904446;29;20274;-56
2022/06/28 06:43:55;;;;;;;1.30;1.20;;;22.40;46.80;;;;;;4905845;29;20270;-58
2022/06/28 06:46:21;;;;;;;1.20;1.10;;;22.40;46.80;;;;;;4899887;29;20187;-59
2022/06/28 06:48:47;;;;;;;1.40;1.30;;;22.40;46.80;;;;;;4905073;29;20227;-60
2022/06/28 06:51:12;;;;;;;1.53;1.43;;;22.40;46.80;;;;;;4904234;29;20216;-61
2022/06/28 06:53:38;;;;;;;1.30;1.20;;;22.40;46.80;;;;;;4902855;29;20640;-58
2022/06/28 06:56:04;;;;;;;1.50;1.40;;;22.40;46.70;;;;;;4904848;29;20207;-57
2022/06/28 06:58:29;;;;;;;1.50;1.40;;;22.40;46.70;;;;;;4903002;29;20681;-57
2022/06/28 07:00:55;;;;;;;1.20;1.10;;;22.40;46.80;;;;;;4904339;29;20809;-57
2022/06/28 07:03:21;;;;;;;1.53;1.43;;;22.40;46.80;;;;;;4901461;29;20232;-57
2022/06/28 07:05:46;;;;;;;1.30;1.20;;;22.40;46.80;;;;;;4904871;29;20251;-58
2022/06/28 07:08:12;;;;;;;1.63;1.37;;;22.40;46.80;;;;;;4899537;29;20199;-57
2022/06/28 07:10:37;;;;;;;1.37;1.27;;;22.40;46.80;;;;;;4905106;29;20644;-57
2022/06/28 07:13:03;;;;;;;2.13;1.40;;;22.40;46.80;;;;;;4907476;29;20187;-57
2022/06/28 07:15:29;;;;;;;1.40;1.20;;;22.40;46.80;;;;;;4902671;29;20757;-57
2022/06/28 07:17:54;;;;;;;1.30;1.20;;;22.40;46.80;;;;;;4906149;29;20658;-56
2022/06/28 07:20:20;;;;;;;1.30;1.20;;;22.40;46.80;;;;;;4906328;29;20222;-56
2022/06/28 07:22:46;;;;;;;1.60;1.43;;;22.40;46.80;;;;;;4901906;29;20674;-60
2022/06/28 07:25:13;;;;;;;1.40;1.30;;;22.40;46.80;;;;;;4899030;29;20239;-57
2022/06/28 07:27:39;;;;;;;1.50;1.40;;;22.40;46.80;;;;;;4901672;29;20191;-57
2022/06/28 07:30:05;;;;;;;1.40;1.30;;;22.40;47.00;;;;;;4904378;29;20467;-58
2022/06/28 07:32:31;;;;;;;1.23;1.13;;;22.40;46.90;;;;;;4903561;29;20450;-58
2022/06/28 07:34:57;;;;;;;1.40;1.30;;;22.40;46.80;;;;;;4903204;29;20430;-57
2022/06/28 07:37:22;;;;;;;1.50;1.40;;;22.40;46.80;;;;;;4901281;29;20508;-57
2022/06/28 07:39:48;;;;;;;2.53;1.30;;;22.40;46.90;;;;;;4900974;29;21499;-57
2022/06/28 07:42:13;;;;;;;1.10;1.00;;;22.40;46.90;;;;;;4902069;29;20304;-58
2022/06/28 07:44:39;;;;;;;1.40;1.30;;;22.40;47.00;;;;;;4902625;29;20247;-58
2022/06/28 07:47:05;;;;;;;1.30;1.20;;;22.40;47.00;;;;;;4900944;29;20200;-57
2022/06/28 07:54:59;;;;;;;1.30;1.20;;;22.40;47.20;;;;;;4902879;29;20807;-61
2022/06/28 07:57:26;;;;;;;1.50;1.40;;;22.40;47.20;;;;;;4900828;29;20443;-58
2022/06/28 07:59:52;;;;;;;1.23;1.13;;;22.40;47.20;;;;;;4901327;29;20244;-59
2022/06/28 08:02:17;;;;;;;2.53;1.20;;;22.40;47.20;;;;;;4899728;29;20474;-56
2022/06/28 08:04:43;;;;;;;2.27;1.20;;;22.40;47.20;;;;;;4902566;29;20203;-57
2022/06/28 08:07:08;;;;;;;1.20;1.10;;;22.40;47.20;;;;;;4904962;29;20179;-57
2022/06/28 08:09:34;;;;;;;1.00;1.00;;;22.40;47.20;;;;;;4905469;29;20235;-57
2022/06/28 08:12:00;;;;;;;1.00;0.90;;;22.40;47.20;;;;;;4902744;29;20742;-57
2022/06/28 08:14:26;;;;;;;1.20;1.10;;;22.40;47.20;;;;;;4902790;29;20230;-56
2022/06/28 08:16:52;;;;;;;1.20;1.10;;;22.40;48.00;;;;;;4905320;29;20199;-59
2022/06/28 08:19:19;;;;;;;1.27;1.17;;;22.40;47.20;;;;;;4901284;29;20967;-58
2022/06/28 08:21:46;;;;;;;1.17;1.07;;;22.40;47.20;;;;;;4902962;29;20780;-57
2022/06/28 08:24:12;;;;;;;1.23;1.10;;;22.40;47.20;;;;;;4902514;29;20449;-59
2022/06/28 08:26:42;;;;;;;1.10;1.00;;;22.40;47.20;;;;;;4904981;29;20934;-57
2022/06/28 08:29:09;;;;;;;1.20;1.10;;;22.40;47.20;;;;;;4902756;29;20211;-56
2022/06/28 08:31:34;;;;;;;1.20;1.10;;;22.40;47.20;;;;;;4901427;29;20484;-56
2022/06/28 08:34:00;;;;;;;1.23;1.13;;;22.40;47.20;;;;;;4905065;29;21065;-58
2022/06/28 08:36:25;;;;;;;1.03;1.03;;;22.40;47.20;;;;;;4903252;29;20663;-57
2022/06/28 08:38:51;;;;;;;1.17;1.07;;;22.40;47.30;;;;;;4904496;29;20184;-56
2022/06/28 08:41:17;;;;;;;1.30;1.20;;;22.40;48.10;;;;;;4905756;29;20195;-59
2022/06/28 08:43:43;;;;;;;1.20;1.10;;;22.40;47.30;;;;;;4903431;29;20235;-58
2022/06/28 08:46:09;;;;;;;1.10;1.00;;;22.40;47.20;;;;;;4902481;29;20557;-57
2022/06/28 08:48:41;;;;;;;0.90;0.90;;;22.40;47.20;;;;;;4904207;29;20445;-56
2022/06/28 08:51:09;;;;;;;0.90;0.90;;;22.40;47.20;;;;;;4905972;29;20554;-57
2022/06/28 08:53:36;;;;;;;1.00;1.00;;;22.40;47.30;;;;;;4906068;29;20953;-56
2022/06/28 08:56:02;;;;;;;1.47;1.37;;;22.40;47.20;;;;;;4911193;29;20440;-57
2022/06/28 08:58:29;;;;;;;1.20;1.10;;;22.40;47.20;;;;;;4905103;29;20442;-57
2022/06/28 09:00:54;;;;;;;1.20;1.10;;;22.40;47.20;;;;;;4904069;29;20199;-60
2022/06/28 09:03:20;;;;;;;1.20;1.10;;;22.40;47.20;;;;;;4904147;29;20477;-59
2022/06/28 09:05:46;;;;;;;1.50;1.40;;;22.40;47.10;;;;;;4905090;29;20546;-58
2022/06/28 09:08:12;;;;;;;1.57;1.47;;;22.40;47.80;;;;;;4905270;29;20179;-57
2022/06/28 09:10:37;;;;;;;3.53;1.13;;;22.40;47.10;;;;;;4905717;29;20841;-56
2022/06/28 09:13:08;;;;;;;1.33;1.23;;;22.40;47.20;;;;;;4906992;29;20210;-57
2022/06/28 09:15:55;;;;;;;5.63;1.20;;;22.40;47.20;;;;;;4906352;29;20223;-57
2022/06/28 09:18:26;;;;;;;6.40;1.80;;;22.40;47.10;;;;;;4906433;29;20430;-57
2022/06/28 09:20:55;;;;;;;6.63;1.90;;;22.40;47.10;;;;;;4905699;29;20506;-56
2022/06/28 09:23:22;;;;;;;13.63;2.40;;;22.40;47.10;;;;;;4902883;29;20548;-58
2022/06/28 09:25:48;;;;;;;14.23;2.30;;;22.50;47.10;;;;;;4906208;29;20435;-58
2022/06/28 09:28:22;;;;;;;3.60;1.30;;;22.50;47.10;;;;;;4904326;29;20925;-57
2022/06/28 09:30:48;;;;;;;3.00;1.30;;;22.50;46.90;;;;;;4907856;29;20271;-56
2022/06/28 09:33:27;;;;;;;4.10;1.70;;;22.50;46.80;;;;;;4906828;29;20454;-57
2022/06/28 09:35:53;;;;;;;2.63;1.63;;;22.50;46.90;;;;;;4906791;29;20437;-58
2022/06/28 09:38:32;;;;;;;1.63;1.53;;;22.50;46.80;;;;;;4902634;29;20520;-55
2022/06/28 09:40:58;;;;;;;2.60;1.37;;;22.50;46.90;;;;;;4907847;29;20441;-56
2022/06/28 09:43:33;;;;;;;8.83;1.80;;;22.50;46.90;;;;;;4909473;29;20482;-56
2022/06/28 09:46:03;;;;;;;2.77;1.27;;;22.50;46.80;;;;;;4906075;29;20509;-56
2022/06/28 09:48:36;;;;;;;5.00;1.30;;;22.50;46.90;;;;;;4904826;29;20915;-57
2022/06/28 09:51:02;;;;;;;2.40;1.40;;;22.50;46.80;;;;;;4907225;29;20434;-56
2022/06/28 09:53:29;;;;;;;2.40;1.27;;;22.50;46.90;;;;;;4904720;29;20441;-56
2022/06/28 09:56:00;;;;;;;1.70;1.50;;;22.50;46.80;;;;;;4904013;29;20466;-56
2022/06/28 09:58:26;;;;;;;1.30;1.20;;;22.50;46.90;;;;;;4905282;29;20548;-58
2022/06/28 10:00:53;;;;;;;1.20;1.07;;;22.50;46.90;;;;;;4904721;29;20446;-57
2022/06/28 10:03:19;;;;;;;1.27;1.17;;;22.50;46.90;;;;;;4906817;29;20465;-57
2022/06/28 10:05:45;;;;;;;1.87;1.30;;;22.50;46.80;;;;;;4901898;29;20462;-58
2022/06/28 10:08:11;;;;;;;1.60;1.50;;;22.50;46.80;;;;;;4906956;29;20199;-57
2022/06/28 10:10:38;;;;;;;1.27;1.17;;;22.50;46.90;;;;;;4902024;29;20192;-57
2022/06/28 10:16:17;;;;;;;1.20;1.10;;;22.50;46.80;;;;;;4902715;29;20440;-58
2022/06/28 10:18:44;;;;;;;1.20;1.10;;;22.50;46.90;;;;;;4899114;29;20454;-57
2022/06/28 10:21:09;;;;;;;1.83;1.10;;;22.50;47.10;;;;;;4906688;29;20453;-57
2022/06/28 10:23:43;;;;;;;1.70;1.40;;;22.50;47.10;;;;;;4905930;29;20466;-56
2022/06/28 10:26:14;;;;;;;1.30;1.20;;;22.50;47.20;;;;;;4905181;29;20530;-59
2022/06/28 10:28:59;;;;;;;1.50;1.40;;;22.50;47.20;;;;;;4903540;29;20445;-59
2022/06/28 10:31:25;;;;;;;1.30;1.20;;;22.50;47.30;;;;;;4906028;29;20484;-57
2022/06/28 10:33:52;;;;;;;1.30;1.20;;;22.50;47.30;;;;;;4902817;29;20536;-56
2022/06/28 10:36:20;;;;;;;1.60;1.50;;;22.40;47.30;;;;;;4902505;29;20195;-57
2022/06/28 10:39:08;;;;;;;1.53;1.33;;;22.50;47.40;;;;;;4899977;29;20959;-56
2022/06/28 10:41:47;;;;;;;1.20;1.10;;;22.40;47.30;;;;;;4895012;29;20454;-57
2022/06/28 10:44:20;;;;;;;1.30;1.20;;;22.40;47.40;;;;;;4904675;29;20498;-58
2022/06/28 10:46:50;;;;;;;1.57;1.47;;;22.40;47.40;;;;;;4899940;29;21784;-57
2022/06/28 10:49:16;;;;;;;1.43;1.30;;;22.40;47.50;;;;;;4904859;29;20480;-58
2022/06/28 10:52:10;;;;;;;1.50;1.40;;;22.40;47.50;;;;;;4902027;29;20437;-56
2022/06/28 10:54:36;;;;;;;1.30;1.20;;;22.40;47.50;;;;;;4902104;29;20449;-58
2022/06/28 10:57:22;;;;;;;1.37;1.27;;;22.40;47.50;;;;;;4906552;29;20437;-57
2022/06/28 10:59:50;;;;;;;1.37;1.07;;;22.40;48.30;;;;;;4905163;29;20439;-59
2022/06/28 11:02:16;;;;;;;1.43;1.33;;;22.40;47.60;;;;;;4906767;29;20916;-58
2022/06/28 11:04:43;;;;;;;1.57;1.47;;;22.40;47.50;;;;;;4902407;29;20584;-59
2022/06/28 11:07:29;;;;;;;1.33;1.23;;;22.40;47.50;;;;;;4902444;29;20530;-59
2022/06/28 11:10:04;;;;;;;1.33;1.00;;;22.40;47.60;;;;;;4903642;29;20532;-58
2022/06/28 11:12:35;;;;;;;1.23;1.10;;;22.40;47.60;;;;;;4908212;29;20445;-57
2022/06/28 11:15:09;;;;;;;1.70;1.20;;;22.40;47.60;;;;;;4906329;29;21174;-59
2022/06/28 11:17:38;;;;;;;1.07;1.00;;;22.40;47.60;;;;;;4903964;29;20805;-59
2022/06/28 11:20:07;;;;;;;1.57;1.20;;;22.40;47.60;;;;;;4902935;29;20501;-58
2022/06/28 11:22:39;;;;;;;1.23;1.13;;;22.40;47.60;;;;;;4904153;29;21435;-58
2022/06/28 11:25:07;;;;;;;1.47;1.37;;;22.40;47.60;;;;;;4905421;29;22259;-57
2022/06/28 11:27:33;;;;;;;2.07;1.20;;;22.40;47.60;;;;;;4903267;29;20446;-58
2022/06/28 11:30:01;;;;;;;1.53;1.43;;;22.40;47.60;;;;;;4906809;29;20801;-57
2022/06/28 11:32:36;;;;;;;1.17;1.07;;;22.40;47.60;;;;;;4905160;29;20326;-58
2022/06/28 11:35:07;;;;;;;1.13;1.10;;;22.40;47.60;;;;;;4904528;29;21192;-59
2022/06/28 11:37:50;;;;;;;1.40;1.30;;;22.40;47.60;;;;;;4901222;29;20447;-58
2022/06/28 11:40:17;;;;;;;1.77;1.30;;;22.40;47.70;;;;;;4903633;29;20446;-59
2022/06/28 11:42:45;;;;;;;1.30;1.20;;;22.40;47.60;;;;;;4900317;29;20478;-57
2022/06/28 11:45:12;;;;;;;3.13;1.50;;;22.40;47.70;;;;;;4903820;29;20431;-59
2022/06/28 11:47:42;;;;;;;1.30;1.20;;;22.40;47.70;;;;;;4900437;29;20508;-57
2022/06/28 11:50:13;;;;;;;1.57;1.47;;;22.40;47.70;;;;;;4902515;29;20808;-58
2022/06/28 11:52:50;;;;;;;1.40;1.30;;;22.40;47.70;;;;;;4902907;29;20446;-60
2022/06/28 11:55:16;;;;;;;1.60;1.30;;;22.40;47.60;;;;;;4907272;29;20438;-59
2022/06/28 11:57:44;;;;;;;1.40;1.30;;;22.40;47.70;;;;;;4903994;29;20446;-59
2022/06/28 12:00:13;;;;;;;1.40;1.30;;;22.40;47.70;;;;;;4905335;29;20530;-60
2022/06/28 12:02:43;;;;;;;1.30;1.20;;;22.40;47.70;;;;;;4900189;29;20462;-57
2022/06/28 12:05:10;;;;;;;1.17;1.07;;;22.40;47.70;;;;;;4904704;29;20437;-57
2022/06/28 12:07:37;;;;;;;1.20;1.10;;;22.40;47.70;;;;;;4905963;29;20434;-58
2022/06/28 12:10:04;;;;;;;1.20;1.10;;;22.40;47.70;;;;;;4907929;29;20533;-58
2022/06/28 12:12:29;;;;;;;1.20;1.10;;;22.40;47.70;;;;;;4905036;29;20450;-59
2022/06/28 12:14:57;;;;;;;1.20;1.10;;;22.40;47.80;;;;;;4902528;29;20461;-59
2022/06/28 12:17:22;;;;;;;1.50;1.40;;;22.40;47.70;;;;;;4905010;29;20223;-57
2022/06/28 12:19:48;;;;;;;1.20;1.10;;;22.40;47.80;;;;;;4905094;29;20473;-59
2022/06/28 12:22:18;;;;;;;1.30;1.20;;;22.40;47.80;;;;;;4905137;29;20191;-58
2022/06/28 12:24:47;;;;;;;1.20;1.10;;;22.40;47.70;;;;;;4910847;29;20698;-58
2022/06/28 12:27:18;;;;;;;1.63;1.07;;;22.40;47.80;;;;;;4907316;29;20446;-59
2022/06/28 12:29:44;;;;;;;1.20;1.10;;;22.40;47.80;;;;;;4912403;29;20434;-57
2022/06/28 12:32:10;;;;;;;1.20;1.10;;;22.40;47.80;;;;;;4907953;29;20501;-59
2022/06/28 12:34:37;;;;;;;1.23;1.13;;;22.40;47.80;;;;;;4906933;29;20218;-58
2022/06/28 12:37:03;;;;;;;1.30;1.20;;;22.40;47.80;;;;;;4906910;29;20787;-60
2022/06/28 12:39:29;;;;;;;1.20;1.10;;;22.40;47.80;;;;;;4906729;29;20512;-57
2022/06/28 12:41:55;;;;;;;1.20;1.10;;;22.40;47.80;;;;;;4906180;29;21013;-58
2022/06/28 12:44:20;;;;;;;1.20;1.10;;;22.40;47.80;;;;;;4911455;29;20222;-60
2022/06/28 12:46:46;;;;;;;1.53;1.43;;;22.40;47.80;;;;;;4909235;29;20191;-58
2022/06/28 12:49:12;;;;;;;1.17;1.10;;;22.40;47.80;;;;;;4905385;29;20186;-60
2022/06/28 12:51:38;;;;;;;1.10;1.10;;;22.40;47.80;;;;;;4909099;29;20191;-58
2022/06/28 12:54:03;;;;;;;1.33;1.23;;;22.40;47.80;;;;;;4906683;29;20536;-58
2022/06/28 12:56:30;;;;;;;1.10;1.00;;;22.40;47.80;;;;;;4910895;29;20445;-58
2022/06/28 12:58:58;;;;;;;1.40;1.30;;;22.40;47.80;;;;;;4907127;29;20196;-58
2022/06/28 13:01:24;;;;;;;1.30;1.20;;;22.40;47.80;;;;;;4905994;29;20438;-58